createdAt,value
2023-05-14T00:00:06.787Z,9.10
2023-05-14T00:03:45.620Z,9.10
2023-05-14T00:07:36.033Z,9.10
2023-05-14T00:11:25.029Z,9.20
2023-05-14T00:15:14.110Z,9.10
2023-05-14T00:19:03.162Z,8.90
2023-05-14T00:22:52.338Z,8.80
2023-05-14T00:26:41.432Z,8.62
2023-05-14T00:30:31.639Z,8.62
2023-05-14T00:34:20.899Z,8.60
2023-05-14T00:38:10.029Z,8.64
2023-05-14T00:41:59.094Z,8.70
2023-05-14T00:45:48.406Z,8.70
2023-05-14T00:49:37.416Z,8.70
2023-05-14T00:53:26.384Z,8.70
2023-05-14T00:57:15.466Z,8.64
2023-05-14T01:01:04.691Z,8.60
2023-05-14T01:04:53.860Z,8.60
2023-05-14T01:09:07.314Z,8.60
2023-05-14T01:12:56.415Z,8.50
2023-05-14T01:16:45.648Z,8.42
2023-05-14T01:20:34.678Z,8.40
2023-05-14T01:24:23.723Z,8.32
2023-05-14T01:28:43.567Z,8.30
2023-05-14T01:32:32.713Z,8.20
2023-05-14T01:36:21.747Z,8.02
2023-05-14T01:40:10.753Z,8.00
2023-05-14T01:43:59.828Z,7.92
2023-05-14T01:47:48.951Z,8.00
2023-05-14T01:51:38.025Z,8.04
2023-05-14T01:55:27.219Z,8.00
2023-05-14T01:59:16.181Z,7.80
2023-05-14T02:03:05.492Z,7.70
2023-05-14T02:06:54.652Z,7.70
2023-05-14T02:10:43.879Z,7.70
2023-05-14T02:14:32.876Z,7.80
2023-05-14T02:18:21.969Z,7.70
2023-05-14T02:22:11.026Z,7.70
2023-05-14T02:26:00.168Z,7.54
2023-05-14T02:29:49.280Z,7.40
2023-05-14T02:33:38.480Z,7.40
2023-05-14T02:37:20.503Z,7.30
2023-05-14T02:41:09.924Z,7.30
2023-05-14T02:44:59.120Z,7.30
2023-05-14T02:48:48.249Z,7.40
2023-05-14T02:52:37.339Z,7.50
2023-05-14T02:56:26.636Z,7.50
2023-05-14T03:00:15.608Z,7.50
2023-05-14T03:03:59.457Z,7.50
2023-05-14T03:07:48.693Z,7.50
2023-05-14T03:11:37.670Z,7.54
2023-05-14T03:15:26.620Z,7.50
2023-05-14T03:19:15.543Z,7.44
2023-05-14T03:23:04.795Z,7.50
2023-05-14T03:26:53.966Z,7.44
2023-05-14T03:30:43.053Z,7.50
2023-05-14T03:34:32.223Z,7.60
2023-05-14T03:38:22.370Z,7.60
2023-05-14T03:42:11.359Z,7.62
2023-05-14T03:46:00.448Z,7.70
2023-05-14T03:49:49.415Z,7.70
2023-05-14T03:53:38.541Z,7.80
2023-05-14T03:57:27.612Z,7.80
2023-05-14T04:01:16.816Z,7.90
2023-05-14T04:05:05.913Z,7.92
2023-05-14T04:08:54.923Z,8.00
2023-05-14T04:12:43.996Z,8.00
2023-05-14T04:16:33.142Z,8.12
2023-05-14T04:20:23.144Z,8.16
2023-05-14T04:24:12.550Z,8.20
2023-05-14T04:28:01.699Z,8.30
2023-05-14T04:31:50.719Z,8.40
2023-05-14T04:35:39.894Z,8.50
2023-05-14T04:39:28.941Z,8.60
2023-05-14T04:43:18.014Z,8.80
2023-05-14T04:47:06.985Z,8.96
2023-05-14T04:50:56.388Z,9.10
2023-05-14T04:54:45.593Z,9.20
2023-05-14T04:58:35.258Z,9.20
2023-05-14T05:02:25.474Z,9.32
2023-05-14T05:06:14.744Z,9.46
2023-05-14T05:10:03.987Z,9.60
2023-05-14T05:13:53.092Z,9.70
2023-05-14T05:17:42.950Z,9.90
2023-05-14T05:21:32.023Z,10.00
2023-05-14T05:25:21.187Z,10.10
2023-05-14T05:29:10.282Z,10.20
2023-05-14T05:32:59.589Z,10.38
2023-05-14T05:36:48.875Z,10.50
2023-05-14T05:40:37.858Z,10.70
2023-05-14T05:44:26.961Z,10.90
2023-05-14T05:48:16.244Z,11.00
2023-05-14T05:52:05.593Z,11.20
2023-05-14T05:55:54.797Z,11.30
2023-05-14T05:59:43.876Z,11.50
2023-05-14T06:03:33.100Z,11.70
2023-05-14T06:07:22.167Z,11.92
2023-05-14T06:11:11.393Z,12.14
2023-05-14T06:15:03.077Z,12.40
2023-05-14T06:18:52.489Z,12.56
2023-05-14T06:23:31.112Z,12.70
2023-05-14T06:26:54.114Z,13.00
2023-05-14T06:30:43.222Z,13.10
2023-05-14T06:34:35.631Z,13.20
2023-05-14T06:38:24.334Z,13.30
2023-05-14T06:42:13.404Z,13.36
2023-05-14T06:46:02.475Z,13.40
2023-05-14T06:49:51.545Z,13.60
2023-05-14T06:53:40.757Z,13.70
2023-05-14T06:57:50.868Z,13.74
2023-05-14T07:01:40.177Z,13.80
2023-05-14T07:05:29.418Z,13.90
2023-05-14T07:09:21.611Z,14.00
2023-05-14T07:13:04.905Z,14.10
2023-05-14T07:16:54.175Z,14.20
2023-05-14T07:20:43.204Z,14.30
2023-05-14T07:24:34.951Z,14.36
2023-05-14T07:28:03.857Z,14.44
2023-05-14T07:31:52.992Z,14.50
2023-05-14T07:35:42.157Z,14.58
2023-05-14T07:39:31.291Z,14.70
2023-05-14T07:43:09.413Z,14.80
2023-05-14T07:46:43.920Z,15.00
2023-05-14T07:50:38.864Z,15.16
2023-05-14T07:54:27.921Z,15.20
2023-05-14T07:58:17.292Z,15.30
2023-05-14T08:02:06.411Z,15.38
2023-05-14T08:05:55.388Z,15.40
2023-05-14T08:09:44.633Z,15.50
2023-05-14T08:13:33.675Z,15.60
2023-05-14T08:17:22.993Z,15.80
2023-05-14T08:21:12.085Z,15.90
2023-05-14T08:25:01.176Z,16.10
2023-05-14T08:28:49.142Z,16.20
2023-05-14T08:32:38.196Z,16.30
2023-05-14T08:36:27.275Z,16.40
2023-05-14T08:40:16.350Z,16.46
2023-05-14T08:44:05.507Z,16.60
2023-05-14T08:47:54.745Z,16.70
2023-05-14T08:52:04.818Z,16.90
2023-05-14T08:55:55.166Z,17.00
2023-05-14T08:59:44.357Z,17.00
2023-05-14T09:03:33.642Z,17.10
2023-05-14T09:07:07.730Z,17.18
2023-05-14T09:10:57.666Z,17.20
2023-05-14T09:14:46.395Z,17.20
2023-05-14T09:18:34.154Z,17.30
2023-05-14T09:22:05.502Z,17.40
2023-05-14T09:25:42.926Z,17.50
2023-05-14T09:29:24.623Z,17.60
2023-05-14T09:33:06.680Z,17.70
2023-05-14T09:36:33.596Z,17.72
2023-05-14T09:40:10.193Z,18.00
2023-05-14T09:43:59.207Z,18.22
2023-05-14T09:47:33.238Z,18.32
2023-05-14T09:51:07.730Z,18.40
2023-05-14T09:54:40.280Z,18.50
2023-05-14T09:58:22.856Z,18.46
2023-05-14T10:01:54.510Z,18.70
2023-05-14T10:05:43.578Z,18.80
2023-05-14T10:09:15.240Z,18.90
2023-05-14T10:12:46.426Z,18.92
2023-05-14T10:16:38.293Z,19.10
2023-05-14T10:20:17.985Z,19.20
2023-05-14T10:23:51.011Z,19.22
2023-05-14T10:27:40.209Z,19.40
2023-05-14T10:31:22.031Z,19.10
2023-05-14T10:34:57.493Z,18.90
2023-05-14T10:38:46.741Z,18.70
2023-05-14T10:42:24.861Z,18.50
2023-05-14T10:46:13.047Z,18.50
2023-05-14T10:49:54.885Z,18.40
2023-05-14T10:53:42.653Z,18.40
2023-05-14T10:57:22.918Z,18.40
2023-05-14T11:01:11.418Z,18.42
2023-05-14T11:05:00.692Z,18.40
2023-05-14T11:08:41.031Z,18.30
2023-05-14T11:12:23.416Z,18.24
2023-05-14T11:16:23.469Z,18.10
2023-05-14T11:19:56.003Z,18.00
2023-05-14T11:23:38.518Z,17.96
2023-05-14T11:27:27.599Z,17.84
2023-05-14T11:30:55.206Z,17.82
2023-05-14T11:34:44.215Z,17.80
2023-05-14T11:38:13.565Z,17.80
2023-05-14T11:41:57.739Z,17.78
2023-05-14T11:45:33.081Z,17.70
2023-05-14T11:49:22.168Z,17.60
2023-05-14T11:53:11.616Z,17.60
2023-05-14T11:57:00.831Z,17.60
2023-05-14T12:00:22.890Z,17.56
2023-05-14T12:04:12.168Z,17.58
2023-05-14T12:08:00.169Z,17.50
2023-05-14T12:11:49.312Z,17.50
2023-05-14T12:15:38.459Z,17.48
2023-05-14T12:19:28.466Z,17.50
2023-05-14T12:23:07.991Z,17.40
2023-05-14T12:26:57.036Z,17.40
2023-05-14T12:30:46.458Z,17.30
2023-05-14T12:34:37.175Z,17.20
2023-05-14T12:38:26.972Z,17.20
2023-05-14T12:42:16.123Z,17.20
2023-05-14T12:46:05.532Z,17.22
2023-05-14T12:49:56.374Z,17.20
2023-05-14T12:53:47.694Z,17.18
2023-05-14T12:57:36.892Z,17.10
2023-05-14T13:01:25.848Z,17.10
2023-05-14T13:05:15.285Z,17.00
2023-05-14T13:08:54.912Z,16.90
2023-05-14T13:12:44.122Z,16.74
2023-05-14T13:16:33.365Z,16.56
2023-05-14T13:20:22.518Z,16.30
2023-05-14T13:24:11.714Z,16.12
2023-05-14T13:28:00.813Z,15.80
2023-05-14T13:32:05.726Z,15.60
2023-05-14T13:35:54.784Z,15.38
2023-05-14T13:39:27.348Z,15.10
2023-05-14T13:43:16.558Z,15.02
2023-05-14T13:47:05.723Z,14.92
2023-05-14T13:50:54.900Z,15.00
2023-05-14T13:54:43.943Z,15.02
2023-05-14T13:58:35.955Z,15.10
2023-05-14T14:02:25.241Z,15.20
2023-05-14T14:06:14.270Z,15.30
2023-05-14T14:09:53.815Z,15.40
2023-05-14T14:13:31.788Z,15.50
2023-05-14T14:17:20.915Z,15.60
2023-05-14T14:21:03.083Z,15.72
2023-05-14T14:24:52.158Z,15.90
2023-05-14T14:28:24.081Z,16.10
2023-05-14T14:32:14.361Z,16.10
2023-05-14T14:36:03.428Z,16.12
2023-05-14T14:39:52.541Z,16.20
2023-05-14T14:43:31.693Z,16.20
2023-05-14T14:47:20.825Z,16.20
2023-05-14T14:51:10.013Z,16.20
2023-05-14T14:54:59.249Z,16.20
2023-05-14T14:58:48.373Z,16.30
2023-05-14T15:02:37.515Z,16.30
2023-05-14T15:06:26.592Z,16.30
2023-05-14T15:10:15.630Z,16.30
2023-05-14T15:14:04.484Z,16.20
2023-05-14T15:17:46.270Z,16.28
2023-05-14T15:21:35.454Z,16.30
2023-05-14T15:25:16.505Z,16.30
2023-05-14T15:29:05.622Z,16.30
2023-05-14T15:32:54.775Z,16.40
2023-05-14T15:36:43.783Z,16.36
2023-05-14T15:40:32.872Z,16.38
2023-05-14T15:44:14.509Z,16.40
2023-05-14T15:48:03.740Z,16.40
2023-05-14T15:51:52.901Z,16.48
2023-05-14T15:55:34.599Z,16.50
2023-05-14T15:59:24.787Z,16.56
2023-05-14T16:03:38.426Z,16.54
2023-05-14T16:07:27.725Z,16.50
2023-05-14T16:11:16.792Z,16.50
2023-05-14T16:15:05.507Z,16.50
2023-05-14T16:18:54.929Z,16.50
2023-05-14T16:22:44.154Z,16.40
2023-05-14T16:26:33.456Z,16.40
2023-05-14T16:30:22.790Z,16.40
2023-05-14T16:34:12.139Z,16.40
2023-05-14T16:38:01.202Z,16.38
2023-05-14T16:41:32.822Z,16.34
2023-05-14T16:45:14.601Z,16.30
2023-05-14T16:48:56.701Z,16.32
2023-05-14T16:52:45.994Z,16.40
2023-05-14T16:56:35.165Z,16.32
2023-05-14T17:00:25.878Z,16.40
2023-05-14T17:03:54.702Z,16.40
2023-05-14T17:07:43.711Z,16.30
2023-05-14T17:11:32.917Z,16.30
2023-05-14T17:15:22.225Z,16.20
2023-05-14T17:19:11.628Z,16.10
2023-05-14T17:23:00.838Z,16.10
2023-05-14T17:26:49.958Z,16.00
2023-05-14T17:30:38.970Z,15.98
2023-05-14T17:34:28.066Z,15.90
2023-05-14T17:38:17.136Z,15.90
2023-05-14T17:42:05.516Z,15.86
2023-05-14T17:45:54.889Z,15.80
2023-05-14T17:49:44.329Z,15.80
2023-05-14T17:53:33.124Z,15.70
2023-05-14T17:57:20.866Z,15.60
2023-05-14T18:01:02.371Z,15.60
2023-05-14T18:04:51.547Z,15.60
2023-05-14T18:08:40.649Z,15.60
2023-05-14T18:12:29.865Z,15.60
2023-05-14T18:16:07.927Z,15.50
2023-05-14T18:19:56.147Z,15.50
2023-05-14T18:23:27.763Z,15.50
2023-05-14T18:27:08.197Z,15.40
2023-05-14T18:30:56.307Z,15.40
2023-05-14T18:34:36.942Z,15.40
2023-05-14T18:38:25.992Z,15.40
2023-05-14T18:42:13.901Z,15.40
2023-05-14T18:46:03.094Z,15.40
2023-05-14T18:49:52.188Z,15.40
2023-05-14T18:53:24.165Z,15.40
2023-05-14T18:57:13.294Z,15.40
2023-05-14T19:01:02.363Z,15.40
2023-05-14T19:04:52.906Z,15.40
2023-05-14T19:08:25.441Z,15.40
2023-05-14T19:12:14.532Z,15.32
2023-05-14T19:16:02.472Z,15.40
2023-05-14T19:19:36.610Z,15.40
2023-05-14T19:23:25.659Z,15.38
2023-05-14T19:27:14.669Z,15.30
2023-05-14T19:30:57.089Z,15.30
2023-05-14T19:34:46.360Z,15.30
2023-05-14T19:38:35.515Z,15.30
2023-05-14T19:42:04.528Z,15.30
2023-05-14T19:45:46.738Z,15.30
2023-05-14T19:49:35.982Z,15.20
2023-05-14T19:53:25.229Z,15.10
2023-05-14T19:57:04.197Z,15.10
2023-05-14T20:00:44.129Z,15.06
2023-05-14T20:04:33.199Z,15.00
2023-05-14T20:08:22.276Z,15.00
2023-05-14T20:12:11.265Z,14.90
2023-05-14T20:16:00.435Z,14.90
2023-05-14T20:19:49.541Z,14.90
2023-05-14T20:23:38.892Z,14.90
2023-05-14T20:27:27.944Z,14.90
2023-05-14T20:31:17.192Z,14.90
2023-05-14T20:35:06.363Z,14.90
2023-05-14T20:38:35.389Z,14.92
2023-05-14T20:42:20.856Z,14.94
2023-05-14T20:45:59.363Z,15.00
2023-05-14T20:49:45.840Z,15.00
2023-05-14T20:53:15.003Z,15.00
2023-05-14T20:56:53.989Z,15.12
2023-05-14T21:00:43.073Z,15.00
2023-05-14T21:04:32.352Z,14.90
2023-05-14T21:08:21.664Z,14.80
2023-05-14T21:12:10.791Z,14.80
2023-05-14T21:16:00.030Z,14.70
2023-05-14T21:19:48.999Z,14.70
2023-05-14T21:23:52.214Z,14.60
2023-05-14T21:27:42.517Z,14.60
2023-05-14T21:31:31.577Z,14.60
2023-05-14T21:35:20.856Z,14.60
2023-05-14T21:39:09.974Z,14.60
2023-05-14T21:42:59.133Z,14.60
2023-05-14T21:46:48.140Z,14.60
2023-05-14T21:50:37.212Z,14.60
2023-05-14T21:54:26.349Z,14.52
2023-05-14T21:58:15.637Z,14.50
2023-05-14T22:02:07.678Z,14.50
2023-05-14T22:05:57.343Z,14.50
2023-05-14T22:09:46.464Z,14.50
2023-05-14T22:13:34.947Z,14.50
2023-05-14T22:17:24.118Z,14.40
2023-05-14T22:21:13.226Z,14.40
2023-05-14T22:25:02.309Z,14.40
2023-05-14T22:28:51.455Z,14.30
2023-05-14T22:32:40.443Z,14.30
2023-05-14T22:36:29.622Z,14.20
2023-05-14T22:40:18.655Z,14.20
2023-05-14T22:44:07.912Z,14.20
2023-05-14T22:47:50.562Z,14.20
2023-05-14T22:51:40.958Z,14.20
2023-05-14T22:55:29.916Z,14.20
2023-05-14T22:59:19.801Z,14.20
2023-05-14T23:02:39.374Z,14.20
2023-05-14T23:06:27.087Z,14.20
2023-05-14T23:10:16.421Z,14.20
2023-05-14T23:14:05.423Z,14.20
2023-05-14T23:17:54.577Z,14.20
2023-05-14T23:21:43.982Z,14.20
2023-05-14T23:25:32.976Z,14.10
2023-05-14T23:29:22.164Z,14.06
2023-05-14T23:33:11.266Z,14.00
2023-05-14T23:37:00.413Z,14.00
2023-05-14T23:40:49.624Z,14.00
2023-05-14T23:44:38.735Z,14.00
2023-05-14T23:48:27.841Z,13.92
2023-05-14T23:52:16.980Z,13.92
2023-05-14T23:56:06.140Z,14.00
2023-05-14T23:59:55.228Z,14.00
